Time;durP1;ratioP1;P1;durP2;ratioP2;P2;SDS_P1;SDS_P2;PMS_P1;PMS_P2;Temp;Humidity;BMP_temperature;BMP_pressure;BME280_temperature;BME280_humidity;BME280_pressure;Samples;Min_cycle;Max_cycle;Signal;HPM_P1;HPM_P2
2023/09/17 00:00:53;;;;;;;19.98;17.83;;;;;;;;;;5040870;28;20036;-91
2023/09/17 00:03:19;;;;;;;20.70;17.60;;;;;;;;;;5040280;28;20447;-92
2023/09/17 00:05:45;;;;;;;21.95;18.05;;;;;;;;;;5040509;28;20312;-92
2023/09/17 00:08:11;;;;;;;20.38;17.95;;;;;;;;;;5040776;28;20380;-93
2023/09/17 00:10:39;;;;;;;22.20;17.95;;;;;;;;;;5040369;28;20033;-93
2023/09/17 00:16:10;;;;;;;18.80;16.85;;;;;;;;;;5040375;28;20028;-92
2023/09/17 00:18:36;;;;;;;20.67;18.48;;;;;;;;;;5023074;28;20040;-91
2023/09/17 00:21:04;;;;;;;22.27;17.85;;;;;;;;;;5040427;28;20490;-92
2023/09/17 00:23:30;;;;;;;20.35;18.25;;;;;;;;;;5040507;28;20056;-92
2023/09/17 00:25:57;;;;;;;20.23;18.05;;;;;;;;;;5022163;28;20454;-92
2023/09/17 00:28:23;;;;;;;20.92;18.45;;;;;;;;;;5022612;28;20025;-91
2023/09/17 00:30:49;;;;;;;20.73;17.98;;;;;;;;;;5022479;28;20029;-93
2023/09/17 00:33:15;;;;;;;21.52;17.70;;;;;;;;;;5039506;28;20477;-91
2023/09/17 00:35:41;;;;;;;22.23;17.63;;;;;;;;;;5029662;28;20483;-91
2023/09/17 00:38:09;;;;;;;21.33;19.00;;;;;;;;;;5020367;28;20021;-91
2023/09/17 00:40:37;;;;;;;21.80;18.17;;;;;;;;;;5007658;28;20029;-91
2023/09/17 00:43:03;;;;;;;20.50;16.52;;;;;;;;;;5022227;28;20145;-92
2023/09/17 00:45:30;;;;;;;19.80;17.80;;;;;;;;;;5022128;28;20422;-92
2023/09/17 00:47:57;;;;;;;20.20;17.60;;;;;;;;;;5039568;28;20018;-92
2023/09/17 00:50:23;;;;;;;20.70;18.55;;;;;;;;;;5022173;28;20083;-90
2023/09/17 00:52:50;;;;;;;19.73;17.63;;;;;;;;;;5022190;28;20067;-92
2023/09/17 00:55:16;;;;;;;21.52;17.63;;;;;;;;;;5022220;28;20025;-91
2023/09/17 01:00:59;;;;;;;19.38;17.45;;;;;;;;;;5039866;28;20032;-93
2023/09/17 01:03:28;;;;;;;19.83;17.55;;;;;;;;;;5038911;28;20052;-93
2023/09/17 01:05:54;;;;;;;19.55;17.55;;;;;;;;;;5039200;28;20104;-93
2023/09/17 01:08:22;;;;;;;19.15;17.15;;;;;;;;;;5039591;28;20021;-92
2023/09/17 01:10:49;;;;;;;19.02;16.00;;;;;;;;;;5021894;28;20057;-93
2023/09/17 01:16:19;;;;;;;20.58;17.95;;;;;;;;;;5039285;28;20028;-93
2023/09/17 01:18:45;;;;;;;20.13;17.17;;;;;;;;;;5021430;28;20017;-93
2023/09/17 01:21:17;;;;;;;20.30;17.27;;;;;;;;;;5021623;28;20028;-93
2023/09/17 01:23:50;;;;;;;18.95;17.00;;;;;;;;;;5021686;28;20398;-93
2023/09/17 01:26:17;;;;;;;20.20;18.10;;;;;;;;;;5039065;28;20080;-93
2023/09/17 01:29:17;;;;;;;22.17;17.95;;;;;;;;;;5021468;28;20033;-94
2023/09/17 01:31:43;;;;;;;24.20;18.98;;;;;;;;;;5038647;28;20042;-94
2023/09/17 01:34:09;;;;;;;24.58;19.20;;;;;;;;;;5021325;28;20080;-93
2023/09/17 01:36:38;;;;;;;21.45;19.15;;;;;;;;;;5021112;28;20323;-92
2023/09/17 01:39:14;;;;;;;25.35;19.90;;;;;;;;;;5021372;28;20026;-92
2023/09/17 01:47:48;;;;;;;21.10;18.77;;;;;;;;;;5038608;28;20060;-93
2023/09/17 01:50:15;;;;;;;22.05;19.48;;;;;;;;;;5038193;28;20068;-90
2023/09/17 01:52:43;;;;;;;22.25;19.88;;;;;;;;;;5021031;28;20036;-91
2023/09/17 01:55:09;;;;;;;26.60;20.92;;;;;;;;;;5021065;28;20022;-91
2023/09/17 02:01:19;;;;;;;23.95;21.45;;;;;;;;;;5038548;28;20130;-91
2023/09/17 02:03:45;;;;;;;25.63;21.17;;;;;;;;;;5020378;28;20050;-90
2023/09/17 02:06:11;;;;;;;24.73;21.50;;;;;;;;;;5020575;28;20111;-90
2023/09/17 02:08:37;;;;;;;26.60;23.00;;;;;;;;;;5037431;28;20029;-91
2023/09/17 02:11:05;;;;;;;28.90;23.15;;;;;;;;;;5020908;28;20029;-90
2023/09/17 02:16:37;;;;;;;27.98;24.02;;;;;;;;;;5038307;28;20350;-92
2023/09/17 02:19:03;;;;;;;27.60;23.75;;;;;;;;;;5037701;28;20108;-92
2023/09/17 02:21:29;;;;;;;29.13;23.55;;;;;;;;;;5037898;28;20030;-92
2023/09/17 02:23:55;;;;;;;27.27;23.15;;;;;;;;;;5020562;28;20331;-93
2023/09/17 02:26:21;;;;;;;27.70;23.60;;;;;;;;;;5020713;28;20025;-92
2023/09/17 02:28:48;;;;;;;26.77;23.98;;;;;;;;;;5019838;28;20041;-92
2023/09/17 02:31:14;;;;;;;25.88;22.60;;;;;;;;;;5019846;28;20136;-92
2023/09/17 02:33:41;;;;;;;29.30;23.67;;;;;;;;;;5020036;28;20124;-93
2023/09/17 02:36:07;;;;;;;26.92;23.40;;;;;;;;;;5020820;28;20351;-93
2023/09/17 02:38:34;;;;;;;26.25;21.88;;;;;;;;;;5020169;28;20030;-92
2023/09/17 02:41:00;;;;;;;25.65;22.38;;;;;;;;;;5019980;28;20124;-92
2023/09/17 02:43:29;;;;;;;25.15;21.20;;;;;;;;;;5020349;28;20045;-93
2023/09/17 02:45:56;;;;;;;25.73;21.35;;;;;;;;;;5020239;28;20055;-93
2023/09/17 02:48:22;;;;;;;25.70;21.70;;;;;;;;;;5037837;28;20021;-93
2023/09/17 02:50:48;;;;;;;24.92;22.23;;;;;;;;;;5037227;28;20025;-93
2023/09/17 02:53:14;;;;;;;28.02;22.33;;;;;;;;;;5037443;28;20033;-94
2023/09/17 02:55:40;;;;;;;24.90;22.25;;;;;;;;;;5037669;28;20025;-93
2023/09/17 03:01:23;;;;;;;23.65;21.13;;;;;;;;;;5037559;28;20064;-94
2023/09/17 03:03:49;;;;;;;25.65;21.20;;;;;;;;;;5037213;28;20144;-92
2023/09/17 03:06:15;;;;;;;27.23;22.33;;;;;;;;;;5037473;28;20025;-93
2023/09/17 03:08:42;;;;;;;24.38;21.35;;;;;;;;;;5020117;28;20029;-94
2023/09/17 03:11:13;;;;;;;28.00;22.13;;;;;;;;;;5020000;28;20418;-92
2023/09/17 03:16:43;;;;;;;25.98;21.30;;;;;;;;;;5037614;28;20067;-91
2023/09/17 03:19:09;;;;;;;26.10;22.42;;;;;;;;;;5037602;28;20022;-90
2023/09/17 03:21:40;;;;;;;24.27;21.75;;;;;;;;;;5040835;28;20358;-90
2023/09/17 03:24:06;;;;;;;26.50;22.75;;;;;;;;;;5023928;28;20103;-89
2023/09/17 03:26:32;;;;;;;25.38;22.08;;;;;;;;;;5024021;28;20038;-90
2023/09/17 03:32:02;;;;;;;23.92;20.92;;;;;;;;;;5021462;28;20045;-90
2023/09/17 03:34:28;;;;;;;25.08;22.30;;;;;;;;;;5003686;28;20112;-92
2023/09/17 03:36:54;;;;;;;28.95;22.50;;;;;;;;;;5004009;28;20030;-93
2023/09/17 03:39:21;;;;;;;27.15;22.35;;;;;;;;;;5021390;28;20026;-92
2023/09/17 03:41:47;;;;;;;25.63;22.58;;;;;;;;;;5023185;28;20035;-91
2023/09/17 03:44:14;;;;;;;24.77;22.17;;;;;;;;;;5023407;28;20079;-93
2023/09/17 03:46:40;;;;;;;28.25;22.73;;;;;;;;;;5023301;28;20029;-90
2023/09/17 03:49:07;;;;;;;26.05;22.58;;;;;;;;;;5040653;28;20022;-90
2023/09/17 03:51:33;;;;;;;25.20;22.50;;;;;;;;;;5040683;28;20061;-91
2023/09/17 03:54:00;;;;;;;25.05;21.88;;;;;;;;;;5022827;28;20489;-89
2023/09/17 03:56:26;;;;;;;28.05;22.85;;;;;;;;;;5040653;28;20454;-90
2023/09/17 03:58:53;;;;;;;27.17;22.90;;;;;;;;;;5023306;28;20079;-89
2023/09/17 04:01:20;;;;;;;27.13;22.75;;;;;;;;;;5040406;28;20028;-89
2023/09/17 04:03:46;;;;;;;26.33;22.50;;;;;;;;;;5040410;28;20045;-90
2023/09/17 04:06:12;;;;;;;25.85;22.30;;;;;;;;;;5023067;28;20525;-89
2023/09/17 04:08:38;;;;;;;24.73;22.05;;;;;;;;;;5040427;28;20025;-92
2023/09/17 04:11:04;;;;;;;25.08;22.35;;;;;;;;;;5022850;28;20071;-90
2023/09/17 04:14:07;;;;;;;26.42;21.92;;;;;;;;;;5023057;28;20029;-91
2023/09/17 04:16:33;;;;;;;24.67;22.02;;;;;;;;;;5040040;28;20022;-90
2023/09/17 04:19:00;;;;;;;25.35;22.45;;;;;;;;;;5040087;28;20412;-90
2023/09/17 04:21:26;;;;;;;28.08;22.95;;;;;;;;;;5022540;28;20029;-90
2023/09/17 04:23:52;;;;;;;29.27;21.95;;;;;;;;;;5040244;28;20029;-89
2023/09/17 04:26:18;;;;;;;27.73;21.70;;;;;;;;;;5040281;28;20088;-90
2023/09/17 04:28:46;;;;;;;28.50;22.33;;;;;;;;;;5040487;28;20021;-90
2023/09/17 04:31:12;;;;;;;30.95;23.45;;;;;;;;;;5021613;28;20424;-90
2023/09/17 04:33:38;;;;;;;31.98;22.77;;;;;;;;;;5039685;28;20033;-90
2023/09/17 04:36:04;;;;;;;29.65;22.30;;;;;;;;;;5039824;28;20110;-90
2023/09/17 04:38:30;;;;;;;27.65;23.08;;;;;;;;;;5039809;28;20021;-90
2023/09/17 04:40:57;;;;;;;28.20;22.48;;;;;;;;;;5022141;28;20034;-90
2023/09/17 04:46:27;;;;;;;28.27;23.25;;;;;;;;;;5040027;28;20111;-89
2023/09/17 04:48:53;;;;;;;28.40;22.35;;;;;;;;;;5022249;28;20036;-89
2023/09/17 04:51:20;;;;;;;28.48;22.92;;;;;;;;;;5039676;28;20419;-90
2023/09/17 04:53:46;;;;;;;27.80;22.40;;;;;;;;;;5039886;28;20030;-90
2023/09/17 04:56:13;;;;;;;26.02;22.48;;;;;;;;;;5022326;28;20026;-91
2023/09/17 05:01:42;;;;;;;30.23;22.23;;;;;;;;;;5039630;28;20362;-92
2023/09/17 05:04:09;;;;;;;27.02;22.25;;;;;;;;;;5021829;28;20060;-91
2023/09/17 05:06:36;;;;;;;26.35;22.02;;;;;;;;;;5021804;28;20025;-92
2023/09/17 05:09:02;;;;;;;30.15;22.10;;;;;;;;;;5021443;28;20149;-91
2023/09/17 05:11:29;;;;;;;25.17;21.88;;;;;;;;;;5039137;28;20129;-90
2023/09/17 05:13:56;;;;;;;25.13;21.38;;;;;;;;;;5021431;28;20116;-90
2023/09/17 05:16:22;;;;;;;27.90;21.20;;;;;;;;;;5039513;28;20026;-90
2023/09/17 05:18:48;;;;;;;28.83;21.67;;;;;;;;;;5038799;28;20025;-91
2023/09/17 05:21:14;;;;;;;27.92;21.60;;;;;;;;;;5021601;28;20029;-90
2023/09/17 05:23:40;;;;;;;28.05;21.30;;;;;;;;;;5021274;28;20025;-91
2023/09/17 05:26:06;;;;;;;28.23;22.50;;;;;;;;;;5021276;28;20041;-90
2023/09/17 05:28:32;;;;;;;26.05;22.05;;;;;;;;;;5038649;28;20112;-91
2023/09/17 05:30:59;;;;;;;24.48;19.90;;;;;;;;;;5021631;28;20032;-89
2023/09/17 05:33:26;;;;;;;22.88;19.80;;;;;;;;;;5021277;28;20418;-90
2023/09/17 05:35:58;;;;;;;26.45;20.13;;;;;;;;;;5034041;28;20312;-88
2023/09/17 05:38:25;;;;;;;21.30;19.00;;;;;;;;;;5055848;28;20358;-90
2023/09/17 05:40:51;;;;;;;22.60;19.05;;;;;;;;;;5021267;28;20030;-90
2023/09/17 05:46:34;;;;;;;22.67;19.25;;;;;;;;;;5038997;28;20040;-92
2023/09/17 05:49:00;;;;;;;23.83;19.98;;;;;;;;;;5021492;28;20040;-92
2023/09/17 05:51:26;;;;;;;28.08;18.38;;;;;;;;;;5038606;28;20111;-92
2023/09/17 05:53:52;;;;;;;22.67;18.25;;;;;;;;;;5020959;28;20064;-91
2023/09/17 05:56:18;;;;;;;25.67;18.27;;;;;;;;;;5020654;28;20028;-92
2023/09/17 05:58:44;;;;;;;23.48;18.92;;;;;;;;;;5038570;28;20043;-91
2023/09/17 06:01:10;;;;;;;22.95;18.95;;;;;;;;;;5038347;28;20396;-93
2023/09/17 06:03:36;;;;;;;25.30;18.80;;;;;;;;;;5020711;28;20320;-91
2023/09/17 06:06:04;;;;;;;23.35;19.27;;;;;;;;;;5020683;28;20041;-93
2023/09/17 06:08:30;;;;;;;23.10;19.40;;;;;;;;;;5020618;28;20072;-92
2023/09/17 06:10:56;;;;;;;22.85;19.45;;;;;;;;;;5020480;28;20041;-92
2023/09/17 06:13:23;;;;;;;21.45;18.40;;;;;;;;;;5020645;28;20877;-92
2023/09/17 06:15:49;;;;;;;22.02;18.63;;;;;;;;;;5020894;28;20404;-92
2023/09/17 06:18:17;;;;;;;20.88;18.35;;;;;;;;;;5020481;28;20022;-92
2023/09/17 06:20:43;;;;;;;21.02;18.10;;;;;;;;;;5020583;28;20049;-92
2023/09/17 06:23:09;;;;;;;20.92;17.10;;;;;;;;;;5020496;28;20415;-91
2023/09/17 06:25:35;;;;;;;21.77;17.75;;;;;;;;;;5020586;28;20029;-90
2023/09/17 06:28:01;;;;;;;22.45;17.42;;;;;;;;;;5037945;28;20052;-91
2023/09/17 06:30:27;;;;;;;21.38;17.75;;;;;;;;;;5020872;28;20038;-91
2023/09/17 06:32:53;;;;;;;18.95;16.90;;;;;;;;;;5020112;28;20025;-89
2023/09/17 06:35:19;;;;;;;19.25;17.08;;;;;;;;;;5020387;28;20029;-92
2023/09/17 06:37:45;;;;;;;19.23;16.85;;;;;;;;;;5037810;28;20033;-89
2023/09/17 06:40:14;;;;;;;19.10;15.90;;;;;;;;;;5037969;28;20139;-90
2023/09/17 06:42:40;;;;;;;17.60;15.70;;;;;;;;;;5037943;28;20033;-90
2023/09/17 06:45:25;;;;;;;18.70;15.77;;;;;;;;;;5019959;28;20099;-91
2023/09/17 06:47:51;;;;;;;19.25;15.93;;;;;;;;;;5020426;28;20079;-89
2023/09/17 06:50:17;;;;;;;18.98;15.82;;;;;;;;;;5037466;28;20037;-88
2023/09/17 06:52:43;;;;;;;17.92;15.45;;;;;;;;;;5037832;28;20029;-92
2023/09/17 06:55:09;;;;;;;17.17;15.38;;;;;;;;;;5019592;28;20026;-91
2023/09/17 06:57:36;;;;;;;17.52;15.63;;;;;;;;;;5037748;28;20021;-91
2023/09/17 07:00:02;;;;;;;20.13;15.02;;;;;;;;;;5019973;28;20025;-91
2023/09/17 07:02:28;;;;;;;18.15;15.18;;;;;;;;;;5020243;28;20467;-93
2023/09/17 07:04:54;;;;;;;19.67;14.80;;;;;;;;;;5020541;28;20040;-92
2023/09/17 07:07:20;;;;;;;18.25;15.23;;;;;;;;;;5020182;28;20025;-93
2023/09/17 07:09:46;;;;;;;18.75;14.85;;;;;;;;;;5020178;28;20415;-92
2023/09/17 07:12:13;;;;;;;17.67;14.95;;;;;;;;;;5037466;28;20075;-91
2023/09/17 07:14:39;;;;;;;15.88;14.25;;;;;;;;;;5019776;28;20021;-91
2023/09/17 07:17:06;;;;;;;17.90;14.43;;;;;;;;;;5020130;28;20021;-92
2023/09/17 07:19:33;;;;;;;21.10;14.85;;;;;;;;;;5019713;28;20443;-91
2023/09/17 07:21:59;;;;;;;21.65;14.18;;;;;;;;;;5037158;28;20053;-92
2023/09/17 07:24:25;;;;;;;17.80;14.63;;;;;;;;;;5037397;28;20033;-91
2023/09/17 07:26:51;;;;;;;22.90;15.15;;;;;;;;;;5019544;28;20358;-93
2023/09/17 07:29:17;;;;;;;19.48;13.52;;;;;;;;;;5036726;28;20029;-94
2023/09/17 07:31:47;;;;;;;17.73;15.38;;;;;;;;;;5037335;28;20038;-94
2023/09/17 07:34:13;;;;;;;16.15;14.48;;;;;;;;;;5019931;28;20025;-92
2023/09/17 07:36:39;;;;;;;18.65;14.35;;;;;;;;;;5020006;28;20022;-94
2023/09/17 07:39:05;;;;;;;19.60;15.70;;;;;;;;;;5019982;28;20121;-95
2023/09/17 07:41:34;;;;;;;16.00;13.63;;;;;;;;;;5038898;28;20063;-96
2023/09/17 07:44:38;;;;;;;20.92;14.77;;;;;;;;;;5020044;28;20033;-93
2023/09/17 07:47:06;;;;;;;20.02;14.82;;;;;;;;;;5019878;28;20029;-93
2023/09/17 07:49:32;;;;;;;21.30;14.55;;;;;;;;;;5040070;22;20009;-93
2023/09/17 07:51:58;;;;;;;17.70;14.50;;;;;;;;;;5066618;28;20041;-94
2023/09/17 07:54:25;;;;;;;17.80;13.63;;;;;;;;;;5059192;28;20319;-93
2023/09/17 07:56:52;;;;;;;17.50;13.23;;;;;;;;;;5072035;28;20450;-93
2023/09/17 07:59:18;;;;;;;15.43;13.52;;;;;;;;;;5066740;28;20024;-95
2023/09/17 08:01:47;;;;;;;19.17;13.18;;;;;;;;;;5066973;28;20028;-94
2023/09/17 08:04:14;;;;;;;16.92;12.98;;;;;;;;;;5059742;28;20029;-95
2023/09/17 08:06:40;;;;;;;16.15;13.02;;;;;;;;;;5072838;28;20017;-91
2023/09/17 08:09:06;;;;;;;15.05;13.40;;;;;;;;;;5082486;28;20029;-96
2023/09/17 08:11:33;;;;;;;17.67;13.60;;;;;;;;;;5076312;28;20048;-93
2023/09/17 08:13:59;;;;;;;19.13;13.93;;;;;;;;;;5066721;28;20036;-95
2023/09/17 08:16:25;;;;;;;16.33;12.43;;;;;;;;;;5088101;28;20028;-94
2023/09/17 08:18:52;;;;;;;16.98;13.65;;;;;;;;;;5081116;28;20025;-94
2023/09/17 08:21:18;;;;;;;15.40;12.70;;;;;;;;;;5071317;28;20024;-94
2023/09/17 08:23:48;;;;;;;14.75;13.20;;;;;;;;;;5083271;28;20028;-94
2023/09/17 08:26:14;;;;;;;15.30;13.18;;;;;;;;;;5077329;28;20025;-85
2023/09/17 08:28:43;;;;;;;13.90;12.30;;;;;;;;;;5059906;28;20037;-85
2023/09/17 08:31:10;;;;;;;14.95;11.82;;;;;;;;;;5068841;28;20120;-86
2023/09/17 08:33:36;;;;;;;13.07;11.77;;;;;;;;;;5078227;28;20028;-85
2023/09/17 08:36:02;;;;;;;14.27;12.10;;;;;;;;;;5078819;28;20162;-86
2023/09/17 08:38:29;;;;;;;17.10;13.30;;;;;;;;;;5079859;28;20026;-89
2023/09/17 08:40:57;;;;;;;17.60;14.30;;;;;;;;;;5061920;28;20131;-89
2023/09/17 08:43:24;;;;;;;22.90;17.35;;;;;;;;;;5060501;28;20031;-89
2023/09/17 08:45:51;;;;;;;14.55;11.95;;;;;;;;;;5061203;28;20028;-88
2023/09/17 08:48:17;;;;;;;15.70;12.70;;;;;;;;;;5060427;28;20025;-87
2023/09/17 08:50:46;;;;;;;17.10;12.32;;;;;;;;;;5059560;28;20124;-88
2023/09/17 08:53:18;;;;;;;18.77;11.98;;;;;;;;;;5058524;28;20025;-87
2023/09/17 08:55:45;;;;;;;14.90;11.55;;;;;;;;;;5058683;28;20031;-89
2023/09/17 08:58:12;;;;;;;17.65;11.80;;;;;;;;;;5066995;28;20406;-86
2023/09/17 09:12:15;;;;;;;14.05;11.20;;;;;;;;;;5096701;27;20427;-88
2023/09/17 09:14:44;;;;;;;15.73;11.88;;;;;;;;;;5091498;28;20016;-87
2023/09/17 09:17:10;;;;;;;12.90;11.50;;;;;;;;;;5094822;28;20066;-87
2023/09/17 09:19:37;;;;;;;15.45;12.50;;;;;;;;;;5092239;28;20467;-87
2023/09/17 09:22:03;;;;;;;14.73;12.73;;;;;;;;;;5103500;28;20028;-87
2023/09/17 09:24:30;;;;;;;11.95;10.73;;;;;;;;;;5111382;28;20020;-86
2023/09/17 09:26:58;;;;;;;11.60;10.35;;;;;;;;;;5077967;28;20059;-87
2023/09/17 09:29:25;;;;;;;13.32;10.43;;;;;;;;;;5090704;28;20025;-86
2023/09/17 09:32:09;;;;;;;14.25;11.15;;;;;;;;;;5074962;28;20107;-87
2023/09/17 09:34:37;;;;;;;13.68;11.27;;;;;;;;;;5075013;28;20116;-92
2023/09/17 09:37:08;;;;;;;15.38;11.25;;;;;;;;;;5089835;28;20493;-93
2023/09/17 09:39:37;;;;;;;14.60;11.20;;;;;;;;;;5074819;28;20033;-93
2023/09/17 09:42:07;;;;;;;11.40;10.23;;;;;;;;;;5090037;28;20041;-91
2023/09/17 09:44:34;;;;;;;18.50;11.38;;;;;;;;;;5090214;28;20025;-93
2023/09/17 09:47:02;;;;;;;13.82;10.45;;;;;;;;;;5074397;28;20028;-94
2023/09/17 09:49:28;;;;;;;12.38;10.13;;;;;;;;;;5090225;28;20079;-95
2023/09/17 09:51:58;;;;;;;14.10;9.88;;;;;;;;;;5074379;28;20035;-94
2023/09/17 09:54:24;;;;;;;12.68;10.43;;;;;;;;;;5089848;28;20527;-94
2023/09/17 09:56:52;;;;;;;12.65;9.85;;;;;;;;;;5074967;28;20033;-89
2023/09/17 09:59:18;;;;;;;12.85;10.20;;;;;;;;;;5080691;28;20028;-90
2023/09/17 10:04:48;;;;;;;12.18;9.80;;;;;;;;;;5094482;28;20023;-91
2023/09/17 10:31:00;;;;;;;12.05;9.32;;;;;;;;;;5725222;23;20141;31
2023/09/17 10:33:28;;;;;;;11.07;9.23;;;;;;;;;;5558071;23;20058;-96
2023/09/17 10:35:58;;;;;;;16.88;9.50;;;;;;;;;;5244355;23;20046;-93
2023/09/17 10:41:06;;;;;;;10.85;9.55;;;;;;;;;;5821078;23;20138;-94
2023/09/17 10:43:36;;;;;;;11.27;9.30;;;;;;;;;;4990675;28;20027;-95
2023/09/17 10:49:11;;;;;;;10.52;8.95;;;;;;;;;;4982523;28;20033;-95
2023/09/17 10:51:39;;;;;;;14.20;9.27;;;;;;;;;;4950022;28;20119;-94
2023/09/17 10:54:05;;;;;;;10.65;9.07;;;;;;;;;;4985891;28;20031;-93
2023/09/17 10:56:32;;;;;;;11.05;8.65;;;;;;;;;;4983379;28;20023;-87
2023/09/17 10:59:04;;;;;;;9.80;8.90;;;;;;;;;;4991113;28;20077;-95
2023/09/17 11:01:49;;;;;;;9.30;8.18;;;;;;;;;;4962997;29;20067;-87
2023/09/17 11:04:17;;;;;;;10.15;8.05;;;;;;;;;;4975968;28;20034;-90
2023/09/17 11:06:45;;;;;;;12.10;8.38;;;;;;;;;;4951257;28;20159;-92
2023/09/17 11:09:11;;;;;;;8.77;7.75;;;;;;;;;;4952816;28;20041;-90
2023/09/17 11:11:37;;;;;;;12.70;7.82;;;;;;;;;;4963382;28;20070;-89
2023/09/17 11:14:04;;;;;;;9.93;8.25;;;;;;;;;;4962923;28;20038;-88
2023/09/17 11:16:32;;;;;;;9.25;8.27;;;;;;;;;;4945921;28;20045;-91
2023/09/17 11:19:11;;;;;;;8.85;7.95;;;;;;;;;;4964898;29;20023;-94
2023/09/17 11:21:42;;;;;;;9.40;7.40;;;;;;;;;;4962457;29;20031;-95
2023/09/17 11:24:12;;;;;;;8.25;7.43;;;;;;;;;;4965606;28;20026;-92
2023/09/17 11:26:39;;;;;;;9.40;7.95;;;;;;;;;;4980611;28;20037;-92
2023/09/17 11:29:06;;;;;;;10.45;7.45;;;;;;;;;;4963441;28;20113;-94
2023/09/17 11:31:50;;;;;;;9.93;8.00;;;;;;;;;;4980383;28;20043;-94
2023/09/17 11:34:17;;;;;;;10.50;7.85;;;;;;;;;;4979330;28;20027;-93
2023/09/17 11:36:46;;;;;;;8.50;7.68;;;;;;;;;;4963335;28;20154;-94
2023/09/17 11:39:15;;;;;;;11.15;8.38;;;;;;;;;;4980127;28;20034;-93
2023/09/17 11:41:46;;;;;;;8.48;7.65;;;;;;;;;;4962917;28;20476;-92
2023/09/17 11:44:12;;;;;;;10.27;7.72;;;;;;;;;;4980072;28;20023;-94
2023/09/17 11:46:39;;;;;;;11.25;7.95;;;;;;;;;;4963024;28;20329;-92
2023/09/17 11:49:08;;;;;;;9.63;8.05;;;;;;;;;;4962893;28;20027;-93
2023/09/17 11:51:34;;;;;;;8.40;7.50;;;;;;;;;;4999272;28;20109;-92
2023/09/17 11:54:02;;;;;;;8.65;7.75;;;;;;;;;;4982306;28;20026;-94
2023/09/17 11:56:29;;;;;;;9.30;7.25;;;;;;;;;;4994664;28;20033;-93
2023/09/17 11:58:58;;;;;;;9.98;7.95;;;;;;;;;;4973881;28;20034;-92
2023/09/17 12:01:25;;;;;;;13.68;8.30;;;;;;;;;;4985963;28;20034;-93
2023/09/17 12:03:53;;;;;;;13.38;7.35;;;;;;;;;;4992267;28;20095;-93
2023/09/17 12:06:23;;;;;;;12.25;7.72;;;;;;;;;;4965286;28;20046;-94
2023/09/17 12:08:49;;;;;;;11.02;7.63;;;;;;;;;;4988452;28;20026;-94
2023/09/17 12:11:21;;;;;;;9.77;7.20;;;;;;;;;;4998891;28;20321;-93
2023/09/17 12:13:59;;;;;;;10.30;8.05;;;;;;;;;;4998941;28;20321;-95
2023/09/17 12:16:27;;;;;;;10.02;7.68;;;;;;;;;;4981974;28;20030;-93
2023/09/17 12:18:53;;;;;;;10.15;8.15;;;;;;;;;;4998899;28;20475;-93
2023/09/17 12:21:23;;;;;;;9.63;7.50;;;;;;;;;;4980564;28;20448;-94
2023/09/17 12:24:04;;;;;;;8.82;6.93;;;;;;;;;;4987685;28;20041;-95
2023/09/17 12:26:37;;;;;;;11.40;7.45;;;;;;;;;;4971173;28;20117;-93
2023/09/17 12:29:09;;;;;;;9.15;7.35;;;;;;;;;;4966445;28;20101;-93
2023/09/17 12:32:12;;;;;;;8.75;7.85;;;;;;;;;;4966737;28;20336;-93
2023/09/17 12:34:39;;;;;;;11.23;7.35;;;;;;;;;;4996162;28;20022;-94
2023/09/17 12:37:05;;;;;;;12.05;8.02;;;;;;;;;;4976791;28;20030;-94
2023/09/17 12:39:32;;;;;;;10.90;7.55;;;;;;;;;;4995277;28;20030;-94
2023/09/17 12:41:58;;;;;;;12.50;7.93;;;;;;;;;;4980407;28;20042;-94
2023/09/17 12:44:26;;;;;;;11.98;7.72;;;;;;;;;;4981496;28;20030;-93
2023/09/17 12:46:52;;;;;;;13.23;7.85;;;;;;;;;;4966683;28;20041;-93
2023/09/17 12:49:18;;;;;;;10.43;7.28;;;;;;;;;;4979191;28;20309;-95
2023/09/17 12:51:44;;;;;;;9.60;7.03;;;;;;;;;;4980750;28;20339;-94
2023/09/17 12:54:11;;;;;;;8.48;7.57;;;;;;;;;;4970287;28;20088;-92
2023/09/17 12:56:38;;;;;;;11.18;7.72;;;;;;;;;;4998344;28;20031;-94
2023/09/17 12:59:04;;;;;;;8.73;7.30;;;;;;;;;;4969123;28;20037;-94
2023/09/17 13:01:30;;;;;;;9.02;7.57;;;;;;;;;;4975088;28;20041;-94
2023/09/17 13:04:03;;;;;;;9.27;7.60;;;;;;;;;;4996665;28;20015;-94
2023/09/17 13:06:39;;;;;;;10.85;6.90;;;;;;;;;;4987575;28;20432;-92
2023/09/17 13:09:07;;;;;;;13.95;7.38;;;;;;;;;;4980046;28;20106;-94
2023/09/17 13:11:41;;;;;;;9.80;7.07;;;;;;;;;;4986027;28;20041;-86
2023/09/17 13:14:07;;;;;;;9.10;7.13;;;;;;;;;;4998777;28;20034;-95
2023/09/17 13:19:56;;;;;;;13.80;7.38;;;;;;;;;;4978957;28;20435;-93
2023/09/17 13:22:22;;;;;;;9.00;6.60;;;;;;;;;;4961659;28;20034;-93
2023/09/17 13:24:48;;;;;;;10.57;7.30;;;;;;;;;;4962097;28;20026;-93
2023/09/17 13:27:18;;;;;;;8.95;5.60;;;;;;;;;;4978712;28;20069;-95
2023/09/17 13:29:47;;;;;;;7.13;6.15;;;;;;;;;;4961659;28;20027;-94
2023/09/17 13:35:19;;;;;;;8.63;5.18;;;;;;;;;;4979001;28;20042;-93
2023/09/17 13:37:47;;;;;;;7.70;5.78;;;;;;;;;;4964008;28;20325;-93
2023/09/17 13:40:13;;;;;;;6.75;5.28;;;;;;;;;;4962822;28;20046;-94
2023/09/17 13:42:39;;;;;;;6.65;5.07;;;;;;;;;;4961268;28;20077;-94
2023/09/17 13:45:05;;;;;;;8.50;4.97;;;;;;;;;;4979168;28;20026;-94
2023/09/17 13:47:31;;;;;;;7.53;5.28;;;;;;;;;;4982999;28;20031;-95
2023/09/17 13:49:58;;;;;;;13.25;5.43;;;;;;;;;;4985824;28;20023;-94
2023/09/17 13:52:24;;;;;;;10.13;5.35;;;;;;;;;;4986251;28;20027;-95
2023/09/17 13:54:50;;;;;;;9.55;6.22;;;;;;;;;;4980933;28;20447;-92
2023/09/17 13:57:18;;;;;;;10.25;5.55;;;;;;;;;;4999297;28;20313;-93
2023/09/17 13:59:44;;;;;;;8.07;5.57;;;;;;;;;;4984886;28;20022;-93
2023/09/17 14:02:11;;;;;;;8.00;6.38;;;;;;;;;;4984352;28;20132;-92
2023/09/17 14:04:37;;;;;;;9.52;5.80;;;;;;;;;;4984384;28;20034;-93
2023/09/17 14:07:03;;;;;;;9.20;5.90;;;;;;;;;;4967026;28;20027;-93
2023/09/17 14:09:31;;;;;;;6.65;5.88;;;;;;;;;;4966452;28;20026;-94
2023/09/17 14:11:57;;;;;;;9.40;5.82;;;;;;;;;;4965203;28;20027;-93
2023/09/17 14:14:23;;;;;;;6.60;5.70;;;;;;;;;;4981958;28;20027;-95
2023/09/17 14:17:26;;;;;;;11.88;6.93;;;;;;;;;;4971340;28;20034;-94
2023/09/17 14:19:52;;;;;;;9.93;6.07;;;;;;;;;;4983835;28;20121;-93
2023/09/17 14:22:18;;;;;;;8.35;6.40;;;;;;;;;;5001008;28;20026;-96
2023/09/17 14:24:45;;;;;;;17.23;12.48;;;;;;;;;;4984550;28;20019;-93
2023/09/17 14:27:11;;;;;;;28.60;25.60;;;;;;;;;;4980088;28;20034;-93
2023/09/17 14:29:40;;;;;;;12.70;9.05;;;;;;;;;;4964478;28;20053;-93
2023/09/17 14:35:10;;;;;;;10.07;6.25;;;;;;;;;;4981981;28;20038;-93
2023/09/17 14:37:36;;;;;;;11.05;6.55;;;;;;;;;;4970383;28;20033;-93
2023/09/17 14:40:02;;;;;;;8.30;5.90;;;;;;;;;;5000522;28;20041;-95
2023/09/17 14:42:28;;;;;;;9.95;6.25;;;;;;;;;;4984000;28;20385;-93
2023/09/17 14:44:54;;;;;;;13.05;5.82;;;;;;;;;;4981066;28;20404;-92
2023/09/17 14:47:21;;;;;;;8.82;5.72;;;;;;;;;;4981416;28;20126;-94
2023/09/17 14:49:47;;;;;;;15.13;6.18;;;;;;;;;;5000542;28;20408;-95
2023/09/17 14:52:13;;;;;;;10.25;6.07;;;;;;;;;;4982744;28;20037;-94
2023/09/17 14:54:39;;;;;;;6.85;5.82;;;;;;;;;;4964394;28;20046;-95
2023/09/17 14:57:05;;;;;;;9.73;6.53;;;;;;;;;;4987435;28;20048;-93
2023/09/17 14:59:31;;;;;;;13.35;6.18;;;;;;;;;;4980909;28;20038;-94
2023/09/17 15:02:00;;;;;;;9.68;6.00;;;;;;;;;;4991938;28;20022;-93
2023/09/17 15:04:27;;;;;;;12.50;5.90;;;;;;;;;;4977726;28;20069;-93
2023/09/17 15:06:53;;;;;;;12.15;6.28;;;;;;;;;;4981396;28;20023;-95
2023/09/17 15:09:19;;;;;;;10.43;6.68;;;;;;;;;;4985646;28;20365;-93
2023/09/17 15:11:46;;;;;;;9.55;6.00;;;;;;;;;;4982745;28;20037;-91
2023/09/17 15:14:12;;;;;;;8.10;6.03;;;;;;;;;;4964262;28;20023;-90
2023/09/17 15:16:57;;;;;;;9.40;5.93;;;;;;;;;;4981864;28;20030;-93
2023/09/17 15:19:24;;;;;;;10.13;5.82;;;;;;;;;;4980992;28;20043;-89
2023/09/17 15:21:50;;;;;;;12.48;5.95;;;;;;;;;;4964074;28;20031;-93
2023/09/17 15:24:16;;;;;;;13.65;6.15;;;;;;;;;;4981188;28;20313;-92
2023/09/17 15:26:46;;;;;;;10.02;5.80;;;;;;;;;;4980948;28;20022;-91
2023/09/17 15:29:13;;;;;;;14.73;6.28;;;;;;;;;;4980429;28;20023;-89
2023/09/17 15:34:43;;;;;;;10.57;5.85;;;;;;;;;;4980570;28;20053;-93
2023/09/17 15:37:09;;;;;;;9.90;6.05;;;;;;;;;;4980727;28;20051;-95
2023/09/17 15:39:35;;;;;;;23.30;13.85;;;;;;;;;;4963554;28;20038;-94
2023/09/17 15:42:02;;;;;;;57.83;51.40;;;;;;;;;;4963750;28;20050;-94
2023/09/17 15:44:28;;;;;;;20.40;10.85;;;;;;;;;;4980510;28;20401;-92
2023/09/17 15:46:54;;;;;;;12.65;7.65;;;;;;;;;;4980835;28;20026;-95
2023/09/17 15:49:20;;;;;;;9.88;6.30;;;;;;;;;;4980618;28;20038;-96
2023/09/17 15:51:46;;;;;;;20.73;6.30;;;;;;;;;;5001372;28;20068;-93
2023/09/17 15:54:12;;;;;;;10.13;6.05;;;;;;;;;;5010287;28;20018;-95
2023/09/17 15:56:45;;;;;;;9.13;6.28;;;;;;;;;;5008335;28;20042;-95
2023/09/17 15:59:11;;;;;;;15.18;6.82;;;;;;;;;;4990220;28;20045;-92
2023/09/17 16:01:39;;;;;;;14.75;6.72;;;;;;;;;;5011583;28;20416;-95
2023/09/17 16:06:35;;;;;;;15.00;7.90;;;;;;;;;;4948303;29;20167;-91